createdAt,value
2018-02-02T00:00:35.349Z,10.6
2018-02-02T00:01:35.185Z,10.5
2018-02-02T00:02:35.113Z,10.6
2018-02-02T00:03:34.905Z,10.6
2018-02-02T00:04:35.375Z,10.6
2018-02-02T00:05:34.634Z,10.6
2018-02-02T00:06:35.256Z,10.6
2018-02-02T00:07:34.406Z,10.6
2018-02-02T00:08:34.932Z,10.6
2018-02-02T00:09:34.915Z,10.7
2018-02-02T00:10:34.311Z,10.7
2018-02-02T00:11:34.086Z,10.7
2018-02-02T00:12:34.283Z,10.8
2018-02-02T00:13:34.349Z,10.8
2018-02-02T00:14:34.151Z,10.8
2018-02-02T00:15:33.910Z,10.8
2018-02-02T00:16:33.900Z,10.8
2018-02-02T00:17:33.953Z,10.8
2018-02-02T00:18:33.766Z,10.8
2018-02-02T00:19:33.773Z,10.8
2018-02-02T00:20:33.640Z,10.8
2018-02-02T00:21:34.026Z,10.8
2018-02-02T00:22:33.271Z,10.8
2018-02-02T00:23:33.362Z,10.8
2018-02-02T00:24:33.913Z,10.8
2018-02-02T00:25:33.126Z,10.8
2018-02-02T00:26:33.192Z,10.8
2018-02-02T00:27:33.141Z,10.8
2018-02-02T00:28:33.650Z,10.8
2018-02-02T00:29:33.378Z,10.8
2018-02-02T00:30:32.812Z,10.8
2018-02-02T00:31:32.822Z,10.8
2018-02-02T00:32:32.661Z,10.8
2018-02-02T00:33:32.684Z,10.8
2018-02-02T00:34:32.544Z,10.8
2018-02-02T00:35:32.501Z,10.8
2018-02-02T00:36:32.755Z,10.8
2018-02-02T00:37:32.043Z,10.9
2018-02-02T00:38:32.305Z,10.9
2018-02-02T00:39:32.439Z,10.9
2018-02-02T00:40:32.186Z,10.9
2018-02-02T00:41:32.140Z,10.9
2018-02-02T00:42:32.481Z,10.9
2018-02-02T00:43:31.983Z,10.9
2018-02-02T00:44:32.401Z,10.9
2018-02-02T00:45:32.025Z,10.9
2018-02-02T00:46:31.557Z,10.9
2018-02-02T00:47:31.919Z,10.9
2018-02-02T00:48:31.387Z,10.9
2018-02-02T00:49:31.778Z,10.9
2018-02-02T00:50:31.423Z,10.9
2018-02-02T00:51:31.346Z,10.8
2018-02-02T00:52:31.488Z,10.9
2018-02-02T00:53:31.136Z,10.8
2018-02-02T00:54:30.926Z,10.8
2018-02-02T00:55:31.411Z,10.8
2018-02-02T00:56:30.602Z,10.8
2018-02-02T00:57:30.803Z,10.8
2018-02-02T00:58:30.764Z,10.8
2018-02-02T00:59:30.441Z,10.8
2018-02-02T01:00:30.643Z,10.8
2018-02-02T01:01:30.390Z,10.8
2018-02-02T01:02:30.560Z,10.8
2018-02-02T01:03:30.207Z,10.8
2018-02-02T01:04:30.243Z,10.8
2018-02-02T01:05:30.596Z,10.8
2018-02-02T01:06:30.275Z,10.8
2018-02-02T01:07:29.938Z,10.8
2018-02-02T01:08:30.424Z,10.8
2018-02-02T01:09:29.588Z,10.8
2018-02-02T01:10:29.791Z,10.8
2018-02-02T01:11:29.791Z,10.8
2018-02-02T01:12:29.946Z,10.9
2018-02-02T01:13:29.649Z,10.8
2018-02-02T01:14:29.735Z,10.9
2018-02-02T01:15:29.458Z,10.9
2018-02-02T01:16:29.212Z,10.9
2018-02-02T01:17:29.307Z,10.9
2018-02-02T01:18:28.869Z,10.9
2018-02-02T01:19:29.095Z,10.9
2018-02-02T01:20:29.110Z,10.9
2018-02-02T01:21:28.847Z,10.9
2018-02-02T01:22:28.922Z,10.9
2018-02-02T01:23:28.652Z,10.9
2018-02-02T01:24:28.591Z,10.9
2018-02-02T01:25:28.798Z,10.9
2018-02-02T01:26:28.132Z,10.9
2018-02-02T01:27:28.556Z,10.9
2018-02-02T01:28:28.318Z,10.9
2018-02-02T01:29:28.254Z,10.9
2018-02-02T01:30:28.154Z,10.9
2018-02-02T01:31:28.115Z,10.9
2018-02-02T01:32:27.949Z,10.9
2018-02-02T01:33:27.886Z,10.9
2018-02-02T01:34:28.093Z,10.9
2018-02-02T01:35:27.760Z,10.9
2018-02-02T01:36:27.880Z,10.9
2018-02-02T01:37:27.463Z,10.9
2018-02-02T01:38:27.618Z,10.9
2018-02-02T01:39:27.429Z,10.8
2018-02-02T01:40:27.224Z,10.8
2018-02-02T01:41:27.781Z,10.8
2018-02-02T01:42:27.058Z,10.8
2018-02-02T01:43:27.614Z,10.7
2018-02-02T01:44:27.228Z,10.7
2018-02-02T01:45:27.179Z,10.7
2018-02-02T01:46:27.331Z,10.6
2018-02-02T01:47:26.793Z,10.6
2018-02-02T01:48:26.774Z,10.6
2018-02-02T01:49:26.912Z,10.6
2018-02-02T01:50:26.546Z,10.6
2018-02-02T01:51:26.349Z,10.6
2018-02-02T01:52:26.391Z,10.6
2018-02-02T01:53:26.229Z,10.6
2018-02-02T01:54:26.301Z,10.6
2018-02-02T01:55:26.660Z,10.6
2018-02-02T01:56:26.226Z,10.6
2018-02-02T01:57:26.053Z,10.5
2018-02-02T01:58:26.120Z,10.5
2018-02-02T01:59:25.691Z,10.5
2018-02-02T02:00:26.026Z,10.5
2018-02-02T02:01:25.968Z,10.5
2018-02-02T02:02:25.701Z,10.5
2018-02-02T02:03:25.831Z,10.4
2018-02-02T02:04:25.630Z,10.4
2018-02-02T02:05:25.328Z,10.4
2018-02-02T02:06:25.382Z,10.4
2018-02-02T02:07:25.320Z,10.3
2018-02-02T02:08:25.133Z,10.3
2018-02-02T02:09:25.231Z,10.3
2018-02-02T02:10:24.908Z,10.3
2018-02-02T02:11:24.883Z,10.3
2018-02-02T02:12:25.041Z,10.3
2018-02-02T02:13:24.850Z,10.3
2018-02-02T02:14:24.879Z,10.3
2018-02-02T02:15:24.946Z,10.3
2018-02-02T02:16:24.299Z,10.3
2018-02-02T02:17:24.731Z,10.3
2018-02-02T02:18:24.605Z,10.3
2018-02-02T02:19:24.460Z,10.3
2018-02-02T02:20:24.095Z,10.3
2018-02-02T02:21:24.405Z,10.3
2018-02-02T02:22:24.129Z,10.3
2018-02-02T02:23:24.057Z,10.2
2018-02-02T02:24:23.899Z,10.3
2018-02-02T02:25:23.659Z,10.3
2018-02-02T02:26:23.714Z,10.3
2018-02-02T02:27:23.992Z,10.3
2018-02-02T02:28:24.329Z,10.3
2018-02-02T02:29:23.552Z,10.3
2018-02-02T02:30:23.582Z,10.3
2018-02-02T02:31:23.600Z,10.2
2018-02-02T02:32:23.681Z,10.2
2018-02-02T02:33:23.289Z,10.2
2018-02-02T02:34:23.606Z,10.1
2018-02-02T02:35:23.238Z,10.1
2018-02-02T02:36:23.632Z,10.1
2018-02-02T02:37:23.212Z,10.2
2018-02-02T02:38:22.926Z,10.1
2018-02-02T02:39:23.009Z,10.2
2018-02-02T02:40:22.793Z,10.1
2018-02-02T02:41:22.808Z,10.2
2018-02-02T02:42:22.663Z,10.2
2018-02-02T02:43:22.856Z,10.2
2018-02-02T02:44:23.102Z,10.2
2018-02-02T02:45:22.923Z,10.2
2018-02-02T02:46:22.455Z,10.3
2018-02-02T02:47:22.219Z,10.3
2018-02-02T02:48:22.344Z,10.3
2018-02-02T02:49:22.067Z,10.3
2018-02-02T02:50:22.196Z,10.3
2018-02-02T02:51:21.752Z,10.3
2018-02-02T02:52:22.139Z,10.3
2018-02-02T02:53:22.006Z,10.3
2018-02-02T02:54:22.030Z,10.3
2018-02-02T02:55:21.514Z,10.3
2018-02-02T02:56:21.891Z,10.4
2018-02-02T02:57:21.462Z,10.3
2018-02-02T02:58:21.342Z,10.3
2018-02-02T02:59:21.652Z,10.3
2018-02-02T03:00:21.656Z,10.3
2018-02-02T03:01:21.813Z,10.3
2018-02-02T03:02:21.454Z,10.3
2018-02-02T03:03:21.495Z,10.3
2018-02-02T03:04:21.068Z,10.3
2018-02-02T03:05:21.017Z,10.3
2018-02-02T03:06:21.419Z,10.3
2018-02-02T03:07:21.033Z,10.3
2018-02-02T03:08:21.211Z,10.3
2018-02-02T03:09:20.974Z,10.3
2018-02-02T03:10:20.723Z,10.3
2018-02-02T03:11:21.035Z,10.3
2018-02-02T03:12:20.473Z,10.3
2018-02-02T03:13:20.513Z,10.3
2018-02-02T03:14:20.935Z,10.3
2018-02-02T03:15:20.712Z,10.3
2018-02-02T03:16:20.910Z,10.3
2018-02-02T03:17:20.370Z,10.3
2018-02-02T03:18:19.970Z,10.2
2018-02-02T03:19:20.103Z,10.2
2018-02-02T03:20:20.666Z,10.2
2018-02-02T03:21:19.922Z,10.2
2018-02-02T03:22:19.917Z,10.2
2018-02-02T03:23:19.722Z,10.2
2018-02-02T03:24:20.046Z,10.2
2018-02-02T03:25:20.451Z,10.2
2018-02-02T03:26:19.878Z,10.2
2018-02-02T03:27:19.715Z,10.2
2018-02-02T03:28:19.859Z,10.1
2018-02-02T03:29:19.935Z,10.1
2018-02-02T03:30:19.720Z,10.1
2018-02-02T03:31:19.358Z,10.1
2018-02-02T03:32:19.366Z,10.1
2018-02-02T03:33:19.377Z,10.1
2018-02-02T03:34:18.867Z,10.1
2018-02-02T03:35:18.888Z,10.1
2018-02-02T03:36:19.268Z,10.1
2018-02-02T03:37:18.843Z,10.1
2018-02-02T03:38:19.204Z,10.1
2018-02-02T03:39:19.080Z,10
2018-02-02T03:40:18.757Z,10
2018-02-02T03:41:18.777Z,10
2018-02-02T03:42:18.879Z,10
2018-02-02T03:43:18.284Z,10
2018-02-02T03:44:18.579Z,10
2018-02-02T03:45:18.205Z,10
2018-02-02T03:46:18.602Z,10
2018-02-02T03:47:18.787Z,10
2018-02-02T03:48:18.276Z,10.1
2018-02-02T03:49:17.993Z,10
2018-02-02T03:50:17.963Z,10.1
2018-02-02T03:51:18.693Z,10.1
2018-02-02T03:52:17.877Z,10.1
2018-02-02T03:53:17.753Z,10.1
2018-02-02T03:54:17.703Z,10.1
2018-02-02T03:55:18.106Z,10.1
2018-02-02T03:56:18.350Z,10.1
2018-02-02T03:57:17.665Z,10.1
2018-02-02T03:58:17.562Z,10.1
2018-02-02T03:59:17.396Z,10.1
2018-02-02T04:00:17.305Z,10.1
2018-02-02T04:01:17.146Z,10.1
2018-02-02T04:02:17.420Z,10.1
2018-02-02T04:03:17.287Z,10.1
2018-02-02T04:04:16.963Z,10.1
2018-02-02T04:05:17.024Z,10.1
2018-02-02T04:06:17.149Z,10.1
2018-02-02T04:07:16.785Z,10.1
2018-02-02T04:08:17.188Z,10.1
2018-02-02T04:09:16.633Z,10.1
2018-02-02T04:10:16.461Z,10.1
2018-02-02T04:11:16.494Z,10.1
2018-02-02T04:12:16.559Z,10.1
2018-02-02T04:13:16.473Z,10.1
2018-02-02T04:14:16.594Z,10.1
2018-02-02T04:15:16.203Z,10.1
2018-02-02T04:16:16.158Z,10.1
2018-02-02T04:17:16.054Z,10.1
2018-02-02T04:18:16.221Z,10.1
2018-02-02T04:19:15.953Z,10.1
2018-02-02T04:20:16.662Z,10.1
2018-02-02T04:21:15.694Z,10.1
2018-02-02T04:22:16.048Z,10.1
2018-02-02T04:23:15.692Z,10.1
2018-02-02T04:24:15.720Z,10.1
2018-02-02T04:25:15.943Z,10.1
2018-02-02T04:26:15.528Z,10.1
2018-02-02T04:27:15.598Z,10.1
2018-02-02T04:28:15.268Z,10
2018-02-02T04:29:15.403Z,10
2018-02-02T04:30:15.318Z,10
2018-02-02T04:31:14.991Z,10
2018-02-02T04:32:15.542Z,10
2018-02-02T04:33:15.413Z,9.9
2018-02-02T04:34:15.312Z,9.9
2018-02-02T04:35:15.491Z,9.9
2018-02-02T04:36:14.897Z,9.9
2018-02-02T04:37:14.966Z,9.9
2018-02-02T04:38:14.710Z,9.9
2018-02-02T04:39:15.102Z,9.9
2018-02-02T04:40:14.531Z,9.9
2018-02-02T04:41:14.814Z,9.9
2018-02-02T04:42:14.369Z,9.9
2018-02-02T04:43:14.196Z,9.9
2018-02-02T04:44:14.369Z,9.9
2018-02-02T04:45:14.171Z,9.9
2018-02-02T04:46:13.988Z,9.8
2018-02-02T04:47:14.067Z,9.8
2018-02-02T04:48:14.060Z,9.8
2018-02-02T04:49:14.319Z,9.8
2018-02-02T04:50:14.246Z,9.8
2018-02-02T04:51:14.327Z,9.8
2018-02-02T04:52:13.694Z,9.8
2018-02-02T04:53:13.665Z,9.8
2018-02-02T04:54:13.894Z,9.8
2018-02-02T04:55:13.594Z,9.8
2018-02-02T04:56:13.404Z,9.8
2018-02-02T04:57:13.442Z,9.8
2018-02-02T04:58:13.761Z,9.8
2018-02-02T04:59:13.563Z,9.8
2018-02-02T05:00:13.423Z,9.8
2018-02-02T05:01:13.270Z,9.8
2018-02-02T05:02:12.900Z,9.8
2018-02-02T05:03:12.987Z,9.8
2018-02-02T05:04:12.956Z,9.8
2018-02-02T05:05:12.959Z,9.9
2018-02-02T05:06:12.505Z,9.8
2018-02-02T05:07:12.939Z,9.9
2018-02-02T05:08:12.982Z,9.9
2018-02-02T05:09:12.938Z,9.9
2018-02-02T05:10:12.310Z,9.9
2018-02-02T05:11:12.434Z,9.9
2018-02-02T05:12:12.232Z,9.9
2018-02-02T05:13:12.317Z,9.9
2018-02-02T05:14:12.705Z,9.9
2018-02-02T05:15:12.277Z,9.9
2018-02-02T05:16:12.316Z,9.9
2018-02-02T05:17:12.265Z,9.9
2018-02-02T05:18:12.095Z,9.9
2018-02-02T05:19:11.970Z,9.9
2018-02-02T05:20:12.289Z,9.8
2018-02-02T05:21:11.588Z,9.9
2018-02-02T05:22:11.943Z,9.9
2018-02-02T05:23:11.522Z,9.8
2018-02-02T05:24:11.486Z,9.9
2018-02-02T05:25:11.597Z,9.8
2018-02-02T05:26:11.425Z,9.8
2018-02-02T05:27:11.330Z,9.8
2018-02-02T05:28:11.390Z,9.8
2018-02-02T05:29:11.130Z,9.8
2018-02-02T05:30:11.324Z,9.8
2018-02-02T05:31:11.187Z,9.7
2018-02-02T05:32:11.345Z,9.7
2018-02-02T05:33:10.633Z,9.7
2018-02-02T05:34:10.666Z,9.7
2018-02-02T05:35:10.724Z,9.7
2018-02-02T05:36:10.537Z,9.7
2018-02-02T05:37:10.507Z,9.7
2018-02-02T05:38:10.754Z,9.7
2018-02-02T05:39:10.156Z,9.7
2018-02-02T05:40:10.377Z,9.7
2018-02-02T05:41:10.599Z,9.7
2018-02-02T05:42:10.097Z,9.3
2018-02-02T05:43:10.098Z,8.9
2018-02-02T05:44:10.175Z,8.8
2018-02-02T05:45:10.141Z,8.3
2018-02-02T05:46:09.959Z,8.1
2018-02-02T05:47:10.285Z,7.9
2018-02-02T05:48:09.871Z,7.8
2018-02-02T05:49:09.871Z,7.8
2018-02-02T05:50:09.864Z,7.7
2018-02-02T05:51:09.556Z,7.5
2018-02-02T05:52:09.716Z,7.4
2018-02-02T05:53:09.572Z,7.4
2018-02-02T05:54:09.475Z,7.3
2018-02-02T05:55:09.642Z,7.3
2018-02-02T05:56:10.311Z,7.1
2018-02-02T05:57:09.031Z,7.1
2018-02-02T05:58:09.356Z,7.1
2018-02-02T05:59:09.064Z,7
2018-02-02T06:00:08.988Z,6.9
2018-02-02T06:01:09.112Z,6.9
2018-02-02T06:02:08.656Z,6.9
2018-02-02T06:03:09.000Z,6.9
2018-02-02T06:04:08.959Z,6.9
2018-02-02T06:05:08.341Z,6.9
2018-02-02T06:06:08.569Z,6.8
2018-02-02T06:07:08.625Z,6.9
2018-02-02T06:08:09.076Z,6.9
2018-02-02T06:09:08.444Z,6.9
2018-02-02T06:10:08.142Z,6.9
2018-02-02T06:11:08.003Z,6.9
2018-02-02T06:12:08.064Z,6.9
2018-02-02T06:13:08.965Z,6.9
2018-02-02T06:14:07.848Z,6.9
2018-02-02T06:15:08.111Z,6.9
2018-02-02T06:16:08.110Z,6.9
2018-02-02T06:17:08.005Z,7
2018-02-02T06:18:07.753Z,7
2018-02-02T06:19:07.481Z,6.9
2018-02-02T06:20:07.914Z,7
2018-02-02T06:21:07.432Z,7
2018-02-02T06:22:07.451Z,7
2018-02-02T06:23:07.523Z,7.1
2018-02-02T06:24:07.122Z,7.1
2018-02-02T06:25:07.572Z,7.2
2018-02-02T06:26:07.038Z,7.3
2018-02-02T06:27:07.220Z,7.3
2018-02-02T06:28:06.964Z,7.3
2018-02-02T06:29:07.097Z,7.2
2018-02-02T06:30:06.841Z,7.2
2018-02-02T06:31:06.892Z,7.2
2018-02-02T06:32:06.574Z,7.1
2018-02-02T06:33:06.921Z,7.2
2018-02-02T06:34:06.694Z,7.3
2018-02-02T06:35:06.463Z,7.3
2018-02-02T06:36:06.699Z,7.3
2018-02-02T06:37:06.222Z,7.1
2018-02-02T06:38:06.190Z,6.9
2018-02-02T06:39:06.172Z,6.9
2018-02-02T06:40:06.134Z,7
2018-02-02T06:41:06.200Z,7.1
2018-02-02T06:42:06.286Z,7
2018-02-02T06:43:05.935Z,7.1
2018-02-02T06:44:06.082Z,7.2
2018-02-02T06:45:05.901Z,7.2
2018-02-02T06:46:06.044Z,7.1
2018-02-02T06:47:06.305Z,7.1
2018-02-02T06:48:05.723Z,7.1
2018-02-02T06:49:05.616Z,7.2
2018-02-02T06:50:05.625Z,7.3
2018-02-02T06:51:05.592Z,7.3
2018-02-02T06:52:05.868Z,7.3
2018-02-02T06:53:05.213Z,7.4
2018-02-02T06:54:05.446Z,7.4
2018-02-02T06:55:05.133Z,7.4
2018-02-02T06:56:05.223Z,7.5
2018-02-02T06:57:04.988Z,7.5
2018-02-02T06:58:04.950Z,7.5
2018-02-02T06:59:05.289Z,7.5
2018-02-02T07:00:04.859Z,7.5
2018-02-02T07:01:04.973Z,7.4
2018-02-02T07:02:04.689Z,7.4
2018-02-02T07:03:04.700Z,7.4
2018-02-02T07:04:04.497Z,7.4
2018-02-02T07:05:04.708Z,7.5
2018-02-02T07:06:04.474Z,7.6
2018-02-02T07:07:04.447Z,7.6
2018-02-02T07:08:04.172Z,7.7
2018-02-02T07:09:05.065Z,7.7
2018-02-02T07:10:04.281Z,7.8
2018-02-02T07:11:04.165Z,7.8
2018-02-02T07:12:04.427Z,7.8
2018-02-02T07:13:03.685Z,7.8
2018-02-02T07:14:04.046Z,7.9
2018-02-02T07:15:03.923Z,7.9
2018-02-02T07:16:04.166Z,7.9
2018-02-02T07:17:03.581Z,7.9
2018-02-02T07:18:03.543Z,7.9
2018-02-02T07:19:03.547Z,8
2018-02-02T07:20:03.884Z,8.1
2018-02-02T07:21:03.715Z,8.1
2018-02-02T07:22:03.379Z,8.1
2018-02-02T07:23:03.584Z,8.1
2018-02-02T07:24:03.249Z,8.2
2018-02-02T07:25:03.442Z,8.3
2018-02-02T07:26:03.112Z,8.3
2018-02-02T07:27:03.082Z,8.4
2018-02-02T07:28:03.008Z,8.4
2018-02-02T07:29:03.023Z,8.5
2018-02-02T07:30:03.484Z,8.5
2018-02-02T07:31:02.821Z,8.6
2018-02-02T07:32:02.432Z,8.6
2018-02-02T07:33:02.870Z,8.7
2018-02-02T07:34:02.733Z,8.7
2018-02-02T07:35:02.558Z,8.8
2018-02-02T07:36:02.534Z,8.8
2018-02-02T07:37:02.847Z,8.9
2018-02-02T07:38:02.466Z,8.9
2018-02-02T07:39:02.169Z,8.8
2018-02-02T07:40:02.194Z,8.9
2018-02-02T07:41:02.312Z,8.9
2018-02-02T07:42:02.220Z,8.9
2018-02-02T07:43:01.794Z,8.9
2018-02-02T07:44:01.708Z,9
2018-02-02T07:45:01.751Z,9
2018-02-02T07:46:01.816Z,9
2018-02-02T07:47:01.881Z,9.1
2018-02-02T07:48:01.552Z,9.1
2018-02-02T07:49:01.717Z,9.2
2018-02-02T07:50:01.371Z,9.2
2018-02-02T07:51:01.268Z,9.2
2018-02-02T07:52:01.824Z,9.3
2018-02-02T07:53:01.709Z,9.3
2018-02-02T07:54:01.599Z,9.4
2018-02-02T07:55:01.527Z,9.4
2018-02-02T07:56:01.228Z,9.4
2018-02-02T07:57:01.044Z,9.3
2018-02-02T07:58:01.171Z,9.3
2018-02-02T07:59:00.697Z,9.4
2018-02-02T08:00:00.816Z,9.4
2018-02-02T08:01:01.055Z,9.4
2018-02-02T08:02:00.675Z,9.5
2018-02-02T08:03:00.497Z,9.6
2018-02-02T08:04:00.562Z,9.6
2018-02-02T08:05:00.267Z,9.7
2018-02-02T08:06:00.689Z,9.8
2018-02-02T08:07:00.670Z,9.7
2018-02-02T08:08:00.036Z,9.8
2018-02-02T08:08:59.977Z,9.9
2018-02-02T08:09:59.977Z,10
2018-02-02T08:11:00.150Z,10.1
2018-02-02T08:11:59.771Z,10.3
2018-02-02T08:13:00.118Z,10.2
2018-02-02T08:13:59.718Z,10.3
2018-02-02T08:14:59.815Z,10.3
2018-02-02T08:15:59.458Z,10.4
2018-02-02T08:16:59.477Z,10.4
2018-02-02T08:17:59.949Z,10.4
2018-02-02T08:18:59.627Z,10.4
2018-02-02T08:19:59.199Z,10.6
2018-02-02T08:20:59.323Z,10.7
2018-02-02T08:21:59.087Z,10.8
2018-02-02T08:22:59.114Z,10.8
2018-02-02T08:23:59.001Z,10.8
2018-02-02T08:24:58.965Z,10.9
2018-02-02T08:25:58.874Z,11
2018-02-02T08:26:58.944Z,11
2018-02-02T08:27:58.961Z,11.1
2018-02-02T08:28:58.601Z,11.9
2018-02-02T08:29:58.430Z,13.2
2018-02-02T08:30:58.921Z,13.1
2018-02-02T08:31:58.730Z,13
2018-02-02T08:32:58.594Z,12.8
2018-02-02T08:33:58.836Z,12.7
2018-02-02T08:34:58.808Z,13.2
2018-02-02T08:35:58.172Z,13.5
2018-02-02T08:36:58.209Z,13.4
2018-02-02T08:37:58.425Z,13.4
2018-02-02T08:38:58.124Z,13.1
2018-02-02T08:39:57.983Z,12.9
2018-02-02T08:40:57.946Z,12.8
2018-02-02T08:41:58.083Z,12.7
2018-02-02T08:42:58.033Z,12.4
2018-02-02T08:43:57.559Z,12.4
2018-02-02T08:44:57.746Z,12.1
2018-02-02T08:45:57.795Z,12.1
2018-02-02T08:46:57.666Z,12.1
2018-02-02T08:47:57.611Z,12.1
2018-02-02T08:48:57.398Z,12.8
2018-02-02T08:49:57.468Z,13.1
2018-02-02T08:50:57.259Z,13.3
2018-02-02T08:51:57.456Z,13.6
2018-02-02T08:52:57.045Z,14
2018-02-02T08:53:57.035Z,14.4
2018-02-02T08:54:56.802Z,14.5
2018-02-02T08:55:56.972Z,14.4
2018-02-02T08:56:56.668Z,14.4
2018-02-02T08:57:56.915Z,14.4
2018-02-02T08:58:56.731Z,14.2
2018-02-02T08:59:56.845Z,13.9
2018-02-02T09:00:56.384Z,14.2
2018-02-02T09:01:56.427Z,14.8
2018-02-02T09:02:56.683Z,15.3
2018-02-02T09:03:56.609Z,15.8
2018-02-02T09:04:56.375Z,15.8
2018-02-02T09:05:56.338Z,15.7
2018-02-02T09:06:56.055Z,16
2018-02-02T09:07:56.021Z,16.4
2018-02-02T09:08:55.992Z,17.2
2018-02-02T09:09:55.871Z,17.9
2018-02-02T09:10:56.055Z,18.4
2018-02-02T09:11:55.839Z,18.8
2018-02-02T09:12:55.664Z,19
2018-02-02T09:13:55.599Z,19
2018-02-02T09:14:55.514Z,19.3
2018-02-02T09:15:55.463Z,19.6
2018-02-02T09:16:55.329Z,19.6
2018-02-02T09:17:55.408Z,19.1
2018-02-02T09:18:55.430Z,18.6
2018-02-02T09:19:55.359Z,18.1
2018-02-02T09:20:55.512Z,17.9
2018-02-02T09:21:55.148Z,17.7
2018-02-02T09:22:54.966Z,17.6
2018-02-02T09:23:55.387Z,17.4
2018-02-02T09:24:55.368Z,17.2
2018-02-02T09:25:54.766Z,16.9
2018-02-02T09:26:55.349Z,16.8
2018-02-02T09:27:54.650Z,16.6
2018-02-02T09:28:54.673Z,16.3
2018-02-02T09:29:54.601Z,16.3
2018-02-02T09:30:54.374Z,15.8
2018-02-02T09:31:54.922Z,15.4
2018-02-02T09:32:54.184Z,15.3
2018-02-02T09:33:54.101Z,15.3
2018-02-02T09:34:54.074Z,15.9
2018-02-02T09:35:54.185Z,16.6
2018-02-02T09:36:54.030Z,17.3
2018-02-02T09:37:53.775Z,17.9
2018-02-02T09:38:53.643Z,18.5
2018-02-02T09:39:54.294Z,19.2
2018-02-02T09:40:54.010Z,19.7
2018-02-02T09:41:53.971Z,20.3
2018-02-02T09:42:53.924Z,20.6
2018-02-02T09:43:53.369Z,21.1
2018-02-02T09:44:53.811Z,21.5
2018-02-02T09:45:53.653Z,22
2018-02-02T09:46:53.817Z,22
2018-02-02T09:47:53.377Z,21.3
2018-02-02T09:48:53.233Z,20.8
2018-02-02T09:49:53.342Z,21.2
2018-02-02T09:50:53.046Z,21.5
2018-02-02T09:51:53.081Z,21.9
2018-02-02T09:52:52.938Z,21.8
2018-02-02T09:53:52.996Z,21.9
2018-02-02T09:54:52.845Z,21.8
2018-02-02T09:55:52.941Z,21.9
2018-02-02T09:56:52.742Z,21.9
2018-02-02T09:57:52.635Z,22.5
2018-02-02T09:58:52.691Z,23.1
2018-02-02T09:59:52.269Z,23.4
2018-02-02T10:00:52.567Z,23.6
2018-02-02T10:01:52.179Z,23.9
2018-02-02T10:02:51.996Z,24.1
2018-02-02T10:03:52.100Z,24.3
2018-02-02T10:04:52.198Z,24.6
2018-02-02T10:05:51.913Z,24.8
2018-02-02T10:06:52.203Z,24.6
2018-02-02T10:07:51.875Z,23.6
2018-02-02T10:08:51.871Z,23.5
2018-02-02T10:09:51.726Z,23.6
2018-02-02T10:10:51.907Z,23.9
2018-02-02T10:11:51.599Z,24.1
2018-02-02T10:12:51.738Z,24.2
2018-02-02T10:13:51.936Z,23.6
2018-02-02T10:14:51.716Z,22.9
2018-02-02T10:15:51.863Z,22.6
2018-02-02T10:16:51.521Z,22.7
2018-02-02T10:17:51.315Z,22
2018-02-02T10:18:51.609Z,21.7
2018-02-02T10:19:51.030Z,21.2
2018-02-02T10:20:51.163Z,21.4
2018-02-02T10:21:51.100Z,21.6
2018-02-02T10:22:50.699Z,21.4
2018-02-02T10:23:50.888Z,21.4
2018-02-02T10:24:50.630Z,22.1
2018-02-02T10:25:50.948Z,22.9
2018-02-02T10:26:50.886Z,23.4
2018-02-02T10:27:50.641Z,23.6
2018-02-02T10:28:50.707Z,23.8
2018-02-02T10:29:50.635Z,24.1
2018-02-02T10:30:50.590Z,24.1
2018-02-02T10:31:50.562Z,24.3
2018-02-02T10:32:50.206Z,24.6
2018-02-02T10:33:50.049Z,25.3
2018-02-02T10:34:50.184Z,24.9
2018-02-02T10:35:49.762Z,25
2018-02-02T10:36:49.984Z,25.2
2018-02-02T10:37:49.748Z,25.6
2018-02-02T10:38:50.041Z,25.6
2018-02-02T10:39:49.764Z,26
2018-02-02T10:40:49.398Z,25.9
2018-02-02T10:41:49.774Z,25.8
2018-02-02T10:42:49.417Z,26.3
2018-02-02T10:43:49.490Z,26.5
2018-02-02T10:44:49.418Z,26.1
2018-02-02T10:45:49.432Z,26.3
2018-02-02T10:46:49.131Z,26.2
2018-02-02T10:47:49.277Z,26
2018-02-02T10:48:49.099Z,25.7
2018-02-02T10:49:49.315Z,25
2018-02-02T10:50:48.899Z,24.8
2018-02-02T10:51:48.710Z,24.9
2018-02-02T10:52:48.758Z,24.5
2018-02-02T10:53:49.230Z,24.3
2018-02-02T10:54:48.740Z,24.3
2018-02-02T10:55:48.546Z,24.4
2018-02-02T10:56:48.961Z,24.3
2018-02-02T10:57:48.725Z,24.3
2018-02-02T10:58:48.838Z,23.9
2018-02-02T10:59:48.236Z,23.4
2018-02-02T11:00:48.646Z,22.9
2018-02-02T11:01:48.033Z,22.1
2018-02-02T11:02:47.847Z,21.9
2018-02-02T11:03:48.225Z,21.4
2018-02-02T11:04:47.904Z,20.8
2018-02-02T11:05:47.817Z,20.7
2018-02-02T11:06:47.895Z,21.2
2018-02-02T11:07:47.711Z,21.6
2018-02-02T11:08:47.811Z,21.6
2018-02-02T11:09:47.675Z,21.3
2018-02-02T11:10:47.826Z,21.4
2018-02-02T11:11:47.762Z,21.3
2018-02-02T11:12:47.272Z,21.1
2018-02-02T11:13:47.202Z,21.3
2018-02-02T11:14:47.870Z,21.3
2018-02-02T11:15:47.127Z,21.3
2018-02-02T11:17:19.077Z,20.3
2018-02-02T11:17:47.020Z,20.1
2018-02-02T11:18:46.837Z,20.1
2018-02-02T11:19:46.750Z,19.8
2018-02-02T11:20:46.890Z,19.8
2018-02-02T11:21:46.706Z,19.8
2018-02-02T11:22:47.029Z,19.6
2018-02-02T11:23:46.564Z,19.4
2018-02-02T11:24:46.681Z,19.3
2018-02-02T11:25:46.208Z,19.4
2018-02-02T11:26:46.152Z,19.5
2018-02-02T11:27:46.222Z,19.6
2018-02-02T11:28:46.378Z,20
2018-02-02T11:29:46.379Z,19.6
2018-02-02T11:30:46.100Z,19.6
2018-02-02T11:31:45.791Z,19.7
2018-02-02T11:32:45.728Z,19.6
2018-02-02T11:33:45.946Z,19.2
2018-02-02T11:34:45.732Z,19
2018-02-02T11:35:45.669Z,18.9
2018-02-02T11:36:46.185Z,18.8
2018-02-02T11:37:45.891Z,18.8
2018-02-02T11:38:45.268Z,18.9
2018-02-02T11:39:45.316Z,18.9
2018-02-02T11:40:45.270Z,19
2018-02-02T11:41:45.808Z,19.3
2018-02-02T11:42:44.967Z,19.2
2018-02-02T11:43:45.088Z,19.4
2018-02-02T11:44:45.299Z,19.6
2018-02-02T11:45:45.231Z,19.8
2018-02-02T11:46:44.881Z,19.9
2018-02-02T11:47:44.962Z,19.8
2018-02-02T11:48:44.468Z,19.5
2018-02-02T11:49:44.903Z,18.9
2018-02-02T11:50:44.324Z,18.8
2018-02-02T11:51:44.093Z,18.6
2018-02-02T11:52:44.409Z,18.6
2018-02-02T11:53:44.343Z,18.9
2018-02-02T11:54:44.332Z,19.1
2018-02-02T11:55:44.265Z,18.8
2018-02-02T11:56:44.236Z,18.6
2018-02-02T11:57:43.893Z,17.9
2018-02-02T11:58:43.870Z,17.6
2018-02-02T11:59:43.556Z,17.4
2018-02-02T12:00:44.114Z,17.1
2018-02-02T12:01:43.673Z,16.8
2018-02-02T12:02:43.493Z,16.6
2018-02-02T12:03:43.515Z,16.9
2018-02-02T12:04:43.294Z,17.1
2018-02-02T12:05:43.254Z,16.9
2018-02-02T12:06:43.446Z,16.7
2018-02-02T12:07:43.136Z,16.5
2018-02-02T12:08:42.946Z,16.4
2018-02-02T12:09:42.781Z,16.3
2018-02-02T12:10:42.849Z,16.3
2018-02-02T12:11:42.684Z,16.4
2018-02-02T12:12:42.808Z,16.5
2018-02-02T12:13:42.518Z,16.6
2018-02-02T12:14:42.490Z,16.6
2018-02-02T12:15:42.885Z,16.4
2018-02-02T12:16:42.413Z,16.4
2018-02-02T12:17:42.438Z,16.4
2018-02-02T12:18:42.393Z,16.4
2018-02-02T12:19:42.377Z,16.4
2018-02-02T12:20:42.486Z,16.3
2018-02-02T12:21:42.171Z,15.9
2018-02-02T12:22:41.996Z,15.9
2018-02-02T12:23:41.732Z,15.8
2018-02-02T12:24:41.944Z,15.8
2018-02-02T12:25:41.771Z,15.9
2018-02-02T12:26:41.697Z,16.2
2018-02-02T12:27:41.449Z,16.4
2018-02-02T12:28:41.651Z,16.5
2018-02-02T12:29:41.459Z,16.6
2018-02-02T12:30:41.738Z,16.4
2018-02-02T12:31:41.093Z,16.3
2018-02-02T12:32:41.355Z,16.3
2018-02-02T12:33:41.449Z,16.3
2018-02-02T12:34:40.975Z,16.3
2018-02-02T12:35:41.375Z,16.3
2018-02-02T12:36:40.719Z,16.4
2018-02-02T12:37:41.214Z,16.4
2018-02-02T12:38:40.885Z,16.1
2018-02-02T12:39:40.717Z,15.9
2018-02-02T12:40:40.466Z,15.8
2018-02-02T12:41:41.148Z,15.8
2018-02-02T12:42:40.160Z,15.9
2018-02-02T12:43:40.165Z,16
2018-02-02T12:44:40.384Z,15.9
2018-02-02T12:45:40.220Z,15.8
2018-02-02T12:46:39.863Z,15.7
2018-02-02T12:47:40.435Z,15.6
2018-02-02T12:48:40.109Z,15.6
2018-02-02T12:49:40.097Z,15.7
2018-02-02T12:50:39.837Z,15.9
2018-02-02T12:51:39.613Z,15.9
2018-02-02T12:52:39.993Z,16
2018-02-02T12:53:39.288Z,16.2
2018-02-02T12:54:39.302Z,16.3
2018-02-02T12:55:39.333Z,16.3
2018-02-02T12:56:39.579Z,16.1
2018-02-02T12:57:39.550Z,15.9
2018-02-02T12:58:39.099Z,16
2018-02-02T12:59:39.731Z,15.9
2018-02-02T13:00:38.955Z,15.9
2018-02-02T13:01:39.034Z,15.8
2018-02-02T13:02:38.717Z,15.9
2018-02-02T13:03:38.795Z,16.1
2018-02-02T13:04:38.658Z,16.1
2018-02-02T13:05:39.319Z,16.2
2018-02-02T13:06:38.573Z,16.2
2018-02-02T13:07:38.507Z,16.3
2018-02-02T13:08:38.554Z,16.3
2018-02-02T13:09:38.483Z,16.3
2018-02-02T13:10:38.033Z,16.3
2018-02-02T13:11:38.164Z,16.2
2018-02-02T13:12:37.899Z,16.3
2018-02-02T13:13:37.926Z,16.4
2018-02-02T13:14:38.126Z,16.4
2018-02-02T13:15:37.457Z,16.4
2018-02-02T13:16:38.277Z,16.4
2018-02-02T13:17:37.834Z,16.2
2018-02-02T13:18:37.675Z,16
2018-02-02T13:19:37.506Z,15.8
2018-02-02T13:20:37.560Z,15.6
2018-02-02T13:21:37.458Z,15.7
2018-02-02T13:22:37.023Z,15.6
2018-02-02T13:23:37.415Z,15.8
2018-02-02T13:24:36.935Z,15.7
2018-02-02T13:25:37.218Z,15.7
2018-02-02T13:26:36.910Z,15.7
2018-02-02T13:27:36.828Z,15.5